sensor_id;sensor_type;location;lat;lon;timestamp;P1;durP1;ratioP1;P2;durP2;ratioP2
51578;SDS011;47998;53.242;6.386;2023-03-08T00:01:38;4.27;;;2.10;;
51578;SDS011;47998;53.242;6.386;2023-03-08T00:04:04;8.53;;;1.90;;
51578;SDS011;47998;53.242;6.386;2023-03-08T00:06:30;3.70;;;1.73;;
51578;SDS011;47998;53.242;6.386;2023-03-08T00:08:56;4.00;;;2.13;;
51578;SDS011;47998;53.242;6.386;2023-03-08T00:11:24;6.07;;;3.13;;
51578;SDS011;47998;53.242;6.386;2023-03-08T00:13:50;7.53;;;2.30;;
51578;SDS011;47998;53.242;6.386;2023-03-08T00:16:16;9.90;;;2.37;;
51578;SDS011;47998;53.242;6.386;2023-03-08T00:18:42;9.60;;;1.80;;
51578;SDS011;47998;53.242;6.386;2023-03-08T00:21:09;5.33;;;2.00;;
51578;SDS011;47998;53.242;6.386;2023-03-08T00:23:39;3.37;;;1.73;;
51578;SDS011;47998;53.242;6.386;2023-03-08T00:26:05;3.63;;;1.57;;
51578;SDS011;47998;53.242;6.386;2023-03-08T00:28:31;6.67;;;1.93;;
51578;SDS011;47998;53.242;6.386;2023-03-08T00:30:58;3.20;;;1.33;;
51578;SDS011;47998;53.242;6.386;2023-03-08T00:33:31;7.13;;;1.83;;
51578;SDS011;47998;53.242;6.386;2023-03-08T00:35:59;5.57;;;1.40;;
51578;SDS011;47998;53.242;6.386;2023-03-08T00:38:30;8.03;;;1.30;;
51578;SDS011;47998;53.242;6.386;2023-03-08T00:40:57;3.23;;;1.40;;
51578;SDS011;47998;53.242;6.386;2023-03-08T00:43:23;6.07;;;1.47;;
51578;SDS011;47998;53.242;6.386;2023-03-08T00:45:50;4.60;;;1.40;;
51578;SDS011;47998;53.242;6.386;2023-03-08T00:48:15;5.43;;;1.20;;
51578;SDS011;47998;53.242;6.386;2023-03-08T00:50:41;5.30;;;1.30;;
51578;SDS011;47998;53.242;6.386;2023-03-08T00:53:07;5.90;;;1.57;;
51578;SDS011;47998;53.242;6.386;2023-03-08T00:55:33;3.77;;;1.00;;
51578;SDS011;47998;53.242;6.386;2023-03-08T00:57:59;6.70;;;1.20;;
51578;SDS011;47998;53.242;6.386;2023-03-08T01:00:25;4.00;;;1.00;;
51578;SDS011;47998;53.242;6.386;2023-03-08T01:02:52;2.90;;;1.00;;
51578;SDS011;47998;53.242;6.386;2023-03-08T01:05:18;7.23;;;1.00;;
51578;SDS011;47998;53.242;6.386;2023-03-08T01:07:43;2.93;;;0.83;;
51578;SDS011;47998;53.242;6.386;2023-03-08T01:10:09;3.70;;;0.63;;
51578;SDS011;47998;53.242;6.386;2023-03-08T01:12:36;6.13;;;1.00;;
51578;SDS011;47998;53.242;6.386;2023-03-08T01:15:02;6.83;;;1.80;;
51578;SDS011;47998;53.242;6.386;2023-03-08T01:17:30;4.67;;;0.97;;
51578;SDS011;47998;53.242;6.386;2023-03-08T01:19:56;6.17;;;1.10;;
51578;SDS011;47998;53.242;6.386;2023-03-08T01:22:22;2.80;;;1.00;;
51578;SDS011;47998;53.242;6.386;2023-03-08T01:24:48;6.10;;;1.10;;
51578;SDS011;47998;53.242;6.386;2023-03-08T01:27:14;4.50;;;0.97;;
51578;SDS011;47998;53.242;6.386;2023-03-08T01:29:41;3.17;;;0.93;;
51578;SDS011;47998;53.242;6.386;2023-03-08T01:32:07;6.03;;;1.10;;
51578;SDS011;47998;53.242;6.386;2023-03-08T01:34:37;5.90;;;1.20;;
51578;SDS011;47998;53.242;6.386;2023-03-08T01:37:03;3.13;;;1.00;;
51578;SDS011;47998;53.242;6.386;2023-03-08T01:39:29;5.77;;;0.70;;
51578;SDS011;47998;53.242;6.386;2023-03-08T01:41:55;3.77;;;1.33;;
51578;SDS011;47998;53.242;6.386;2023-03-08T01:44:21;4.23;;;1.03;;
51578;SDS011;47998;53.242;6.386;2023-03-08T01:46:47;1.50;;;0.60;;
51578;SDS011;47998;53.242;6.386;2023-03-08T01:49:29;2.93;;;0.60;;
51578;SDS011;47998;53.242;6.386;2023-03-08T01:54:37;7.07;;;2.07;;
51578;SDS011;47998;53.242;6.386;2023-03-08T01:57:19;0.97;;;0.57;;
51578;SDS011;47998;53.242;6.386;2023-03-08T01:59:58;3.70;;;0.40;;
51578;SDS011;47998;53.242;6.386;2023-03-08T02:02:39;4.13;;;0.40;;
51578;SDS011;47998;53.242;6.386;2023-03-08T02:05:25;2.10;;;0.40;;
51578;SDS011;47998;53.242;6.386;2023-03-08T02:07:52;2.53;;;0.47;;
51578;SDS011;47998;53.242;6.386;2023-03-08T02:10:18;2.73;;;0.40;;
51578;SDS011;47998;53.242;6.386;2023-03-08T02:12:44;2.83;;;0.30;;
51578;SDS011;47998;53.242;6.386;2023-03-08T02:15:11;4.40;;;0.60;;
51578;SDS011;47998;53.242;6.386;2023-03-08T02:17:39;3.33;;;0.30;;
51578;SDS011;47998;53.242;6.386;2023-03-08T02:22:53;1.80;;;0.27;;
51578;SDS011;47998;53.242;6.386;2023-03-08T02:25:21;1.20;;;0.30;;
51578;SDS011;47998;53.242;6.386;2023-03-08T02:27:48;2.30;;;0.50;;
51578;SDS011;47998;53.242;6.386;2023-03-08T02:30:17;4.70;;;0.60;;
51578;SDS011;47998;53.242;6.386;2023-03-08T02:32:48;3.53;;;0.30;;
51578;SDS011;47998;53.242;6.386;2023-03-08T02:35:14;1.87;;;0.37;;
51578;SDS011;47998;53.242;6.386;2023-03-08T02:37:40;3.50;;;0.50;;
51578;SDS011;47998;53.242;6.386;2023-03-08T02:40:06;3.23;;;0.40;;
51578;SDS011;47998;53.242;6.386;2023-03-08T02:42:33;2.37;;;0.20;;
51578;SDS011;47998;53.242;6.386;2023-03-08T02:44:59;0.80;;;0.13;;
51578;SDS011;47998;53.242;6.386;2023-03-08T02:47:24;3.03;;;0.40;;
51578;SDS011;47998;53.242;6.386;2023-03-08T02:49:50;1.00;;;0.20;;
51578;SDS011;47998;53.242;6.386;2023-03-08T02:52:16;2.73;;;0.43;;
51578;SDS011;47998;53.242;6.386;2023-03-08T02:54:42;3.60;;;0.23;;
51578;SDS011;47998;53.242;6.386;2023-03-08T02:57:08;0.73;;;0.33;;
51578;SDS011;47998;53.242;6.386;2023-03-08T02:59:34;3.60;;;0.40;;
51578;SDS011;47998;53.242;6.386;2023-03-08T03:01:59;6.37;;;1.20;;
51578;SDS011;47998;53.242;6.386;2023-03-08T03:04:29;5.67;;;0.50;;
51578;SDS011;47998;53.242;6.386;2023-03-08T03:06:56;2.50;;;0.47;;
51578;SDS011;47998;53.242;6.386;2023-03-08T03:09:22;2.10;;;0.40;;
51578;SDS011;47998;53.242;6.386;2023-03-08T03:11:49;2.10;;;0.50;;
51578;SDS011;47998;53.242;6.386;2023-03-08T03:14:15;4.70;;;0.80;;
51578;SDS011;47998;53.242;6.386;2023-03-08T03:16:41;4.77;;;0.80;;
51578;SDS011;47998;53.242;6.386;2023-03-08T03:19:06;2.83;;;0.50;;
51578;SDS011;47998;53.242;6.386;2023-03-08T03:21:32;4.97;;;0.73;;
51578;SDS011;47998;53.242;6.386;2023-03-08T03:23:58;3.40;;;0.80;;
51578;SDS011;47998;53.242;6.386;2023-03-08T03:26:24;2.33;;;0.67;;
51578;SDS011;47998;53.242;6.386;2023-03-08T03:28:50;4.03;;;0.80;;
51578;SDS011;47998;53.242;6.386;2023-03-08T03:31:20;6.20;;;1.00;;
51578;SDS011;47998;53.242;6.386;2023-03-08T03:33:47;4.07;;;0.80;;
51578;SDS011;47998;53.242;6.386;2023-03-08T03:36:15;3.20;;;0.97;;
51578;SDS011;47998;53.242;6.386;2023-03-08T03:38:42;4.43;;;0.90;;
51578;SDS011;47998;53.242;6.386;2023-03-08T03:41:12;3.87;;;1.00;;
51578;SDS011;47998;53.242;6.386;2023-03-08T03:43:44;5.37;;;0.83;;
51578;SDS011;47998;53.242;6.386;2023-03-08T03:46:11;3.33;;;0.63;;
51578;SDS011;47998;53.242;6.386;2023-03-08T03:48:38;3.60;;;0.80;;
51578;SDS011;47998;53.242;6.386;2023-03-08T03:51:05;3.53;;;1.47;;
51578;SDS011;47998;53.242;6.386;2023-03-08T03:53:33;3.63;;;0.70;;
51578;SDS011;47998;53.242;6.386;2023-03-08T03:56:13;4.57;;;1.13;;
51578;SDS011;47998;53.242;6.386;2023-03-08T03:58:43;2.93;;;0.73;;
51578;SDS011;47998;53.242;6.386;2023-03-08T04:01:11;7.07;;;0.60;;
51578;SDS011;47998;53.242;6.386;2023-03-08T04:03:41;2.90;;;0.70;;
51578;SDS011;47998;53.242;6.386;2023-03-08T04:06:17;7.30;;;1.40;;
51578;SDS011;47998;53.242;6.386;2023-03-08T04:08:47;1.13;;;0.50;;
51578;SDS011;47998;53.242;6.386;2023-03-08T04:11:17;2.87;;;0.77;;
51578;SDS011;47998;53.242;6.386;2023-03-08T04:13:45;1.97;;;0.60;;
51578;SDS011;47998;53.242;6.386;2023-03-08T04:16:18;4.27;;;0.77;;
51578;SDS011;47998;53.242;6.386;2023-03-08T04:18:52;5.77;;;0.87;;
51578;SDS011;47998;53.242;6.386;2023-03-08T04:21:19;2.60;;;0.73;;
51578;SDS011;47998;53.242;6.386;2023-03-08T04:23:46;4.83;;;1.10;;
51578;SDS011;47998;53.242;6.386;2023-03-08T04:26:12;5.37;;;0.83;;
51578;SDS011;47998;53.242;6.386;2023-03-08T04:28:39;6.70;;;0.90;;
51578;SDS011;47998;53.242;6.386;2023-03-08T04:31:18;4.90;;;0.77;;
51578;SDS011;47998;53.242;6.386;2023-03-08T04:33:46;4.30;;;1.20;;
51578;SDS011;47998;53.242;6.386;2023-03-08T04:36:13;3.07;;;0.70;;
51578;SDS011;47998;53.242;6.386;2023-03-08T04:38:40;5.00;;;0.97;;
51578;SDS011;47998;53.242;6.386;2023-03-08T04:41:05;2.10;;;0.70;;
51578;SDS011;47998;53.242;6.386;2023-03-08T04:43:43;5.27;;;1.47;;
51578;SDS011;47998;53.242;6.386;2023-03-08T04:46:11;3.37;;;1.10;;
51578;SDS011;47998;53.242;6.386;2023-03-08T04:48:37;4.23;;;1.03;;
51578;SDS011;47998;53.242;6.386;2023-03-08T04:51:04;3.73;;;0.80;;
51578;SDS011;47998;53.242;6.386;2023-03-08T04:53:31;4.23;;;0.70;;
51578;SDS011;47998;53.242;6.386;2023-03-08T04:55:57;3.10;;;0.90;;
51578;SDS011;47998;53.242;6.386;2023-03-08T04:58:24;1.70;;;0.80;;
51578;SDS011;47998;53.242;6.386;2023-03-08T05:00:51;6.07;;;1.07;;
51578;SDS011;47998;53.242;6.386;2023-03-08T05:03:17;3.63;;;0.60;;
51578;SDS011;47998;53.242;6.386;2023-03-08T05:05:47;5.97;;;0.90;;
51578;SDS011;47998;53.242;6.386;2023-03-08T05:08:14;2.80;;;0.73;;
51578;SDS011;47998;53.242;6.386;2023-03-08T05:10:47;1.57;;;0.77;;
51578;SDS011;47998;53.242;6.386;2023-03-08T05:13:23;12.73;;;2.87;;
51578;SDS011;47998;53.242;6.386;2023-03-08T05:15:53;7.43;;;1.67;;
51578;SDS011;47998;53.242;6.386;2023-03-08T05:18:19;4.80;;;0.90;;
51578;SDS011;47998;53.242;6.386;2023-03-08T05:21:19;2.10;;;0.77;;
51578;SDS011;47998;53.242;6.386;2023-03-08T05:23:39;4.78;;;0.98;;
51578;SDS011;47998;53.242;6.386;2023-03-08T05:26:05;8.60;;;1.77;;
51578;SDS011;47998;53.242;6.386;2023-03-08T05:28:33;6.07;;;0.80;;
51578;SDS011;47998;53.242;6.386;2023-03-08T05:33:28;3.83;;;0.97;;
51578;SDS011;47998;53.242;6.386;2023-03-08T05:35:54;3.63;;;0.93;;
51578;SDS011;47998;53.242;6.386;2023-03-08T05:38:20;5.13;;;1.20;;
51578;SDS011;47998;53.242;6.386;2023-03-08T05:40:47;3.60;;;1.20;;
51578;SDS011;47998;53.242;6.386;2023-03-08T05:43:14;8.77;;;3.13;;
51578;SDS011;47998;53.242;6.386;2023-03-08T05:45:40;4.23;;;1.00;;
51578;SDS011;47998;53.242;6.386;2023-03-08T05:48:06;5.43;;;0.83;;
51578;SDS011;47998;53.242;6.386;2023-03-08T05:50:32;2.53;;;1.30;;
51578;SDS011;47998;53.242;6.386;2023-03-08T05:52:58;6.63;;;1.20;;
51578;SDS011;47998;53.242;6.386;2023-03-08T05:55:23;4.17;;;1.57;;
51578;SDS011;47998;53.242;6.386;2023-03-08T05:57:49;3.43;;;1.20;;
51578;SDS011;47998;53.242;6.386;2023-03-08T06:00:15;3.40;;;0.97;;
51578;SDS011;47998;53.242;6.386;2023-03-08T06:02:41;4.57;;;1.07;;
51578;SDS011;47998;53.242;6.386;2023-03-08T06:05:07;2.70;;;0.83;;
51578;SDS011;47998;53.242;6.386;2023-03-08T06:07:33;3.73;;;1.27;;
51578;SDS011;47998;53.242;6.386;2023-03-08T06:09:59;6.80;;;2.07;;
51578;SDS011;47998;53.242;6.386;2023-03-08T06:12:25;4.30;;;1.10;;
51578;SDS011;47998;53.242;6.386;2023-03-08T06:14:51;3.13;;;1.47;;
51578;SDS011;47998;53.242;6.386;2023-03-08T06:17:17;9.17;;;2.57;;
51578;SDS011;47998;53.242;6.386;2023-03-08T06:19:42;4.23;;;0.97;;
51578;SDS011;47998;53.242;6.386;2023-03-08T06:22:08;3.90;;;1.33;;
51578;SDS011;47998;53.242;6.386;2023-03-08T06:24:34;3.70;;;1.20;;
51578;SDS011;47998;53.242;6.386;2023-03-08T06:27:00;5.67;;;1.30;;
51578;SDS011;47998;53.242;6.386;2023-03-08T06:29:26;5.93;;;1.40;;
51578;SDS011;47998;53.242;6.386;2023-03-08T06:31:52;3.57;;;1.20;;
51578;SDS011;47998;53.242;6.386;2023-03-08T06:34:17;3.23;;;1.10;;
51578;SDS011;47998;53.242;6.386;2023-03-08T06:36:44;4.70;;;1.30;;
51578;SDS011;47998;53.242;6.386;2023-03-08T06:39:10;5.67;;;1.40;;
51578;SDS011;47998;53.242;6.386;2023-03-08T06:41:35;6.47;;;1.37;;
51578;SDS011;47998;53.242;6.386;2023-03-08T06:44:01;2.83;;;1.47;;
51578;SDS011;47998;53.242;6.386;2023-03-08T06:46:27;4.47;;;1.37;;
51578;SDS011;47998;53.242;6.386;2023-03-08T06:48:53;9.43;;;1.47;;
51578;SDS011;47998;53.242;6.386;2023-03-08T06:51:20;4.33;;;1.30;;
51578;SDS011;47998;53.242;6.386;2023-03-08T06:53:46;4.73;;;1.20;;
51578;SDS011;47998;53.242;6.386;2023-03-08T06:56:12;4.17;;;1.30;;
51578;SDS011;47998;53.242;6.386;2023-03-08T06:58:40;5.43;;;1.57;;
51578;SDS011;47998;53.242;6.386;2023-03-08T07:01:06;4.13;;;1.43;;
51578;SDS011;47998;53.242;6.386;2023-03-08T07:03:33;3.70;;;1.33;;
51578;SDS011;47998;53.242;6.386;2023-03-08T07:06:07;4.80;;;1.57;;
51578;SDS011;47998;53.242;6.386;2023-03-08T07:08:34;7.90;;;1.53;;
51578;SDS011;47998;53.242;6.386;2023-03-08T07:11:01;7.07;;;2.03;;
51578;SDS011;47998;53.242;6.386;2023-03-08T07:13:27;6.93;;;1.50;;
51578;SDS011;47998;53.242;6.386;2023-03-08T07:15:54;8.20;;;1.80;;
51578;SDS011;47998;53.242;6.386;2023-03-08T07:18:20;7.10;;;1.63;;
51578;SDS011;47998;53.242;6.386;2023-03-08T07:20:54;6.17;;;1.50;;
51578;SDS011;47998;53.242;6.386;2023-03-08T07:23:20;2.37;;;1.30;;
51578;SDS011;47998;53.242;6.386;2023-03-08T07:25:46;6.37;;;1.20;;
51578;SDS011;47998;53.242;6.386;2023-03-08T07:28:12;4.50;;;1.90;;
51578;SDS011;47998;53.242;6.386;2023-03-08T07:30:38;4.33;;;1.47;;
51578;SDS011;47998;53.242;6.386;2023-03-08T07:33:04;5.97;;;1.30;;
51578;SDS011;47998;53.242;6.386;2023-03-08T07:35:29;7.23;;;1.60;;
51578;SDS011;47998;53.242;6.386;2023-03-08T07:37:55;4.00;;;1.30;;
51578;SDS011;47998;53.242;6.386;2023-03-08T07:40:21;8.47;;;1.77;;
51578;SDS011;47998;53.242;6.386;2023-03-08T07:42:47;4.73;;;2.03;;
51578;SDS011;47998;53.242;6.386;2023-03-08T07:45:14;4.07;;;2.03;;
51578;SDS011;47998;53.242;6.386;2023-03-08T07:47:39;7.50;;;3.77;;
51578;SDS011;47998;53.242;6.386;2023-03-08T07:50:06;7.17;;;2.73;;
51578;SDS011;47998;53.242;6.386;2023-03-08T07:52:32;8.63;;;2.07;;
51578;SDS011;47998;53.242;6.386;2023-03-08T07:54:58;5.87;;;2.10;;
51578;SDS011;47998;53.242;6.386;2023-03-08T07:57:26;8.57;;;2.63;;
51578;SDS011;47998;53.242;6.386;2023-03-08T07:59:52;5.77;;;2.97;;
51578;SDS011;47998;53.242;6.386;2023-03-08T08:02:18;4.97;;;2.10;;
51578;SDS011;47998;53.242;6.386;2023-03-08T08:04:44;5.87;;;2.03;;
51578;SDS011;47998;53.242;6.386;2023-03-08T08:07:10;5.07;;;2.37;;
51578;SDS011;47998;53.242;6.386;2023-03-08T08:09:38;4.77;;;2.07;;
51578;SDS011;47998;53.242;6.386;2023-03-08T08:12:04;6.17;;;2.50;;
51578;SDS011;47998;53.242;6.386;2023-03-08T08:14:30;5.80;;;2.40;;
51578;SDS011;47998;53.242;6.386;2023-03-08T08:16:56;8.30;;;2.80;;
51578;SDS011;47998;53.242;6.386;2023-03-08T08:19:22;4.97;;;3.17;;
51578;SDS011;47998;53.242;6.386;2023-03-08T08:21:49;6.30;;;3.67;;
51578;SDS011;47998;53.242;6.386;2023-03-08T08:24:15;8.67;;;5.30;;
51578;SDS011;47998;53.242;6.386;2023-03-08T08:26:41;7.00;;;3.73;;
51578;SDS011;47998;53.242;6.386;2023-03-08T08:29:07;5.57;;;3.40;;
51578;SDS011;47998;53.242;6.386;2023-03-08T08:31:33;6.03;;;2.73;;
51578;SDS011;47998;53.242;6.386;2023-03-08T08:33:59;5.73;;;3.20;;
51578;SDS011;47998;53.242;6.386;2023-03-08T08:36:25;9.03;;;3.10;;
51578;SDS011;47998;53.242;6.386;2023-03-08T08:38:51;7.40;;;3.00;;
51578;SDS011;47998;53.242;6.386;2023-03-08T08:41:18;7.17;;;3.40;;
51578;SDS011;47998;53.242;6.386;2023-03-08T08:43:47;6.23;;;3.60;;
51578;SDS011;47998;53.242;6.386;2023-03-08T08:46:13;5.93;;;2.80;;
51578;SDS011;47998;53.242;6.386;2023-03-08T08:48:40;8.13;;;3.13;;
51578;SDS011;47998;53.242;6.386;2023-03-08T08:51:07;6.37;;;2.73;;
51578;SDS011;47998;53.242;6.386;2023-03-08T08:53:34;4.73;;;2.83;;
51578;SDS011;47998;53.242;6.386;2023-03-08T08:56:11;7.60;;;3.30;;
51578;SDS011;47998;53.242;6.386;2023-03-08T08:58:37;9.67;;;3.10;;
51578;SDS011;47998;53.242;6.386;2023-03-08T09:01:03;8.03;;;3.33;;
51578;SDS011;47998;53.242;6.386;2023-03-08T09:03:29;12.13;;;5.70;;
51578;SDS011;47998;53.242;6.386;2023-03-08T09:05:56;7.70;;;3.50;;
51578;SDS011;47998;53.242;6.386;2023-03-08T09:08:22;9.37;;;3.77;;
51578;SDS011;47998;53.242;6.386;2023-03-08T09:10:47;6.50;;;3.70;;
51578;SDS011;47998;53.242;6.386;2023-03-08T09:13:14;8.57;;;4.07;;
51578;SDS011;47998;53.242;6.386;2023-03-08T09:15:40;6.63;;;3.80;;
51578;SDS011;47998;53.242;6.386;2023-03-08T09:18:06;7.57;;;3.73;;
51578;SDS011;47998;53.242;6.386;2023-03-08T09:20:32;8.23;;;3.33;;
51578;SDS011;47998;53.242;6.386;2023-03-08T09:22:58;10.17;;;2.90;;
51578;SDS011;47998;53.242;6.386;2023-03-08T09:25:23;4.90;;;3.13;;
51578;SDS011;47998;53.242;6.386;2023-03-08T09:27:49;7.60;;;3.53;;
51578;SDS011;47998;53.242;6.386;2023-03-08T09:30:16;8.35;;;3.22;;
51578;SDS011;47998;53.242;6.386;2023-03-08T09:32:42;5.55;;;2.70;;
51578;SDS011;47998;53.242;6.386;2023-03-08T09:35:08;8.13;;;3.20;;
51578;SDS011;47998;53.242;6.386;2023-03-08T09:37:34;8.60;;;2.97;;
51578;SDS011;47998;53.242;6.386;2023-03-08T09:40:02;5.72;;;3.03;;
51578;SDS011;47998;53.242;6.386;2023-03-08T09:42:33;6.00;;;2.63;;
51578;SDS011;47998;53.242;6.386;2023-03-08T09:47:50;4.63;;;2.20;;
51578;SDS011;47998;53.242;6.386;2023-03-08T09:55:34;3.92;;;2.00;;
51578;SDS011;47998;53.242;6.386;2023-03-08T10:01:08;4.63;;;1.88;;
51578;SDS011;47998;53.242;6.386;2023-03-08T10:09:29;4.00;;;1.83;;
51578;SDS011;47998;53.242;6.386;2023-03-08T10:12:15;4.70;;;1.52;;
51578;SDS011;47998;53.242;6.386;2023-03-08T10:15:07;6.85;;;1.80;;
51578;SDS011;47998;53.242;6.386;2023-03-08T10:17:39;6.13;;;1.23;;
51578;SDS011;47998;53.242;6.386;2023-03-08T10:20:21;4.05;;;1.20;;
51578;SDS011;47998;53.242;6.386;2023-03-08T10:22:58;5.43;;;1.67;;
51578;SDS011;47998;53.242;6.386;2023-03-08T10:25:34;3.05;;;0.93;;
51578;SDS011;47998;53.242;6.386;2023-03-08T10:28:01;4.97;;;1.35;;
51578;SDS011;47998;53.242;6.386;2023-03-08T10:30:32;2.95;;;1.08;;
51578;SDS011;47998;53.242;6.386;2023-03-08T10:33:02;4.88;;;0.82;;
51578;SDS011;47998;53.242;6.386;2023-03-08T10:38:13;2.90;;;0.98;;
51578;SDS011;47998;53.242;6.386;2023-03-08T10:40:40;2.95;;;0.90;;
51578;SDS011;47998;53.242;6.386;2023-03-08T10:43:06;3.40;;;1.08;;
51578;SDS011;47998;53.242;6.386;2023-03-08T10:45:38;2.53;;;1.33;;
51578;SDS011;47998;53.242;6.386;2023-03-08T10:48:04;7.38;;;1.52;;
51578;SDS011;47998;53.242;6.386;2023-03-08T10:50:31;1.73;;;0.88;;
51578;SDS011;47998;53.242;6.386;2023-03-08T10:53:18;2.72;;;1.05;;
51578;SDS011;47998;53.242;6.386;2023-03-08T10:55:48;3.67;;;1.10;;
51578;SDS011;47998;53.242;6.386;2023-03-08T10:58:29;2.53;;;0.82;;
51578;SDS011;47998;53.242;6.386;2023-03-08T11:04:02;4.53;;;1.25;;
51578;SDS011;47998;53.242;6.386;2023-03-08T11:06:42;5.95;;;1.70;;
51578;SDS011;47998;53.242;6.386;2023-03-08T11:09:21;2.17;;;0.95;;
51578;SDS011;47998;53.242;6.386;2023-03-08T11:11:50;4.22;;;0.95;;
51578;SDS011;47998;53.242;6.386;2023-03-08T11:14:17;5.00;;;1.10;;
51578;SDS011;47998;53.242;6.386;2023-03-08T11:19:24;1.95;;;0.63;;
51578;SDS011;47998;53.242;6.386;2023-03-08T11:30:18;4.70;;;1.65;;
51578;SDS011;47998;53.242;6.386;2023-03-08T11:35:47;2.17;;;0.28;;
51578;SDS011;47998;53.242;6.386;2023-03-08T11:38:28;3.80;;;0.75;;
51578;SDS011;47998;53.242;6.386;2023-03-08T11:49:13;7.57;;;1.08;;
51578;SDS011;47998;53.242;6.386;2023-03-08T11:54:48;5.55;;;0.93;;
51578;SDS011;47998;53.242;6.386;2023-03-08T11:57:24;5.85;;;1.50;;
51578;SDS011;47998;53.242;6.386;2023-03-08T11:59:55;6.53;;;3.15;;
51578;SDS011;47998;53.242;6.386;2023-03-08T12:02:31;4.53;;;1.50;;
51578;SDS011;47998;53.242;6.386;2023-03-08T12:08:10;6.00;;;2.03;;
51578;SDS011;47998;53.242;6.386;2023-03-08T12:10:47;5.15;;;1.13;;
51578;SDS011;47998;53.242;6.386;2023-03-08T12:18:52;5.32;;;1.00;;
51578;SDS011;47998;53.242;6.386;2023-03-08T12:21:35;6.55;;;1.35;;
51578;SDS011;47998;53.242;6.386;2023-03-08T12:24:23;4.85;;;0.88;;
51578;SDS011;47998;53.242;6.386;2023-03-08T12:29:45;4.88;;;0.80;;
51578;SDS011;47998;53.242;6.386;2023-03-08T12:32:13;6.03;;;0.60;;
51578;SDS011;47998;53.242;6.386;2023-03-08T12:34:42;6.55;;;0.88;;
51578;SDS011;47998;53.242;6.386;2023-03-08T12:37:42;2.45;;;0.70;;
51578;SDS011;47998;53.242;6.386;2023-03-08T12:40:03;2.80;;;0.73;;
51578;SDS011;47998;53.242;6.386;2023-03-08T12:42:48;8.15;;;3.55;;
51578;SDS011;47998;53.242;6.386;2023-03-08T12:47:52;5.75;;;0.65;;
51578;SDS011;47998;53.242;6.386;2023-03-08T12:56:23;3.72;;;0.80;;
51578;SDS011;47998;53.242;6.386;2023-03-08T12:58:56;3.72;;;0.73;;
51578;SDS011;47998;53.242;6.386;2023-03-08T13:03:53;4.00;;;0.90;;
51578;SDS011;47998;53.242;6.386;2023-03-08T13:08:51;2.58;;;0.50;;
51578;SDS011;47998;53.242;6.386;2023-03-08T13:11:39;3.08;;;0.40;;
51578;SDS011;47998;53.242;6.386;2023-03-08T13:16:52;5.10;;;0.60;;
51578;SDS011;47998;53.242;6.386;2023-03-08T13:19:25;5.03;;;0.65;;
51578;SDS011;47998;53.242;6.386;2023-03-08T13:24:41;4.05;;;1.38;;
51578;SDS011;47998;53.242;6.386;2023-03-08T13:29:55;6.90;;;0.80;;
51578;SDS011;47998;53.242;6.386;2023-03-08T13:32:24;3.90;;;0.47;;
51578;SDS011;47998;53.242;6.386;2023-03-08T13:35:00;3.45;;;0.85;;
51578;SDS011;47998;53.242;6.386;2023-03-08T13:37:28;5.75;;;0.60;;
51578;SDS011;47998;53.242;6.386;2023-03-08T13:39:55;4.45;;;0.55;;
51578;SDS011;47998;53.242;6.386;2023-03-08T13:42:26;2.85;;;0.60;;
51578;SDS011;47998;53.242;6.386;2023-03-08T13:45:04;2.92;;;0.70;;
51578;SDS011;47998;53.242;6.386;2023-03-08T13:47:36;3.28;;;0.50;;
51578;SDS011;47998;53.242;6.386;2023-03-08T13:50:03;4.82;;;0.90;;
51578;SDS011;47998;53.242;6.386;2023-03-08T13:52:31;3.95;;;0.88;;
51578;SDS011;47998;53.242;6.386;2023-03-08T13:55:02;2.63;;;0.88;;
51578;SDS011;47998;53.242;6.386;2023-03-08T13:57:31;2.60;;;0.50;;
51578;SDS011;47998;53.242;6.386;2023-03-08T14:00:24;2.15;;;0.90;;
51578;SDS011;47998;53.242;6.386;2023-03-08T14:02:50;1.70;;;0.45;;
51578;SDS011;47998;53.242;6.386;2023-03-08T14:05:17;4.18;;;0.90;;
51578;SDS011;47998;53.242;6.386;2023-03-08T14:10:29;2.65;;;0.57;;
51578;SDS011;47998;53.242;6.386;2023-03-08T14:13:15;2.10;;;0.60;;
51578;SDS011;47998;53.242;6.386;2023-03-08T14:15:53;1.50;;;0.57;;
51578;SDS011;47998;53.242;6.386;2023-03-08T14:18:22;3.38;;;0.68;;
51578;SDS011;47998;53.242;6.386;2023-03-08T14:21:02;3.47;;;0.60;;
51578;SDS011;47998;53.242;6.386;2023-03-08T14:23:28;2.60;;;0.63;;
51578;SDS011;47998;53.242;6.386;2023-03-08T14:25:55;6.80;;;1.63;;
51578;SDS011;47998;53.242;6.386;2023-03-08T14:28:35;3.70;;;1.20;;
51578;SDS011;47998;53.242;6.386;2023-03-08T14:31:21;4.63;;;0.80;;
51578;SDS011;47998;53.242;6.386;2023-03-08T14:33:59;3.92;;;0.70;;
51578;SDS011;47998;53.242;6.386;2023-03-08T14:36:27;2.28;;;0.47;;
51578;SDS011;47998;53.242;6.386;2023-03-08T14:38:55;3.95;;;0.63;;
51578;SDS011;47998;53.242;6.386;2023-03-08T14:41:28;3.20;;;0.65;;
51578;SDS011;47998;53.242;6.386;2023-03-08T14:43:59;2.78;;;0.60;;
51578;SDS011;47998;53.242;6.386;2023-03-08T14:46:26;3.60;;;0.90;;
51578;SDS011;47998;53.242;6.386;2023-03-08T14:48:58;1.83;;;0.32;;
51578;SDS011;47998;53.242;6.386;2023-03-08T14:51:27;2.72;;;0.47;;
51578;SDS011;47998;53.242;6.386;2023-03-08T14:54:00;5.60;;;0.50;;
51578;SDS011;47998;53.242;6.386;2023-03-08T14:56:31;3.92;;;0.65;;
51578;SDS011;47998;53.242;6.386;2023-03-08T14:58:59;3.72;;;0.80;;
51578;SDS011;47998;53.242;6.386;2023-03-08T15:01:28;4.18;;;1.15;;
51578;SDS011;47998;53.242;6.386;2023-03-08T15:03:56;2.67;;;0.40;;
51578;SDS011;47998;53.242;6.386;2023-03-08T15:06:24;3.05;;;0.63;;
51578;SDS011;47998;53.242;6.386;2023-03-08T15:08:58;5.70;;;0.68;;
51578;SDS011;47998;53.242;6.386;2023-03-08T15:11:26;2.45;;;0.35;;
51578;SDS011;47998;53.242;6.386;2023-03-08T15:13:56;3.22;;;0.50;;
51578;SDS011;47998;53.242;6.386;2023-03-08T15:16:23;3.00;;;0.70;;
51578;SDS011;47998;53.242;6.386;2023-03-08T15:18:48;2.08;;;0.60;;
51578;SDS011;47998;53.242;6.386;2023-03-08T15:21:15;2.30;;;0.45;;
51578;SDS011;47998;53.242;6.386;2023-03-08T15:23:46;3.55;;;0.55;;
51578;SDS011;47998;53.242;6.386;2023-03-08T15:26:13;2.65;;;0.70;;
51578;SDS011;47998;53.242;6.386;2023-03-08T15:28:45;2.37;;;0.70;;
51578;SDS011;47998;53.242;6.386;2023-03-08T15:31:11;3.92;;;0.70;;
51578;SDS011;47998;53.242;6.386;2023-03-08T15:33:37;3.75;;;0.70;;
51578;SDS011;47998;53.242;6.386;2023-03-08T15:36:03;3.67;;;1.60;;
51578;SDS011;47998;53.242;6.386;2023-03-08T15:38:29;3.40;;;1.65;;
51578;SDS011;47998;53.242;6.386;2023-03-08T15:40:55;2.05;;;0.75;;
51578;SDS011;47998;53.242;6.386;2023-03-08T15:43:21;2.40;;;0.80;;
51578;SDS011;47998;53.242;6.386;2023-03-08T15:45:46;3.63;;;0.90;;
51578;SDS011;47998;53.242;6.386;2023-03-08T15:48:16;1.95;;;0.47;;
51578;SDS011;47998;53.242;6.386;2023-03-08T15:50:43;2.92;;;0.47;;
51578;SDS011;47998;53.242;6.386;2023-03-08T15:53:09;3.65;;;0.93;;
51578;SDS011;47998;53.242;6.386;2023-03-08T15:55:36;4.85;;;0.57;;
51578;SDS011;47998;53.242;6.386;2023-03-08T15:58:03;2.17;;;0.50;;
51578;SDS011;47998;53.242;6.386;2023-03-08T16:00:29;4.13;;;0.95;;
51578;SDS011;47998;53.242;6.386;2023-03-08T16:02:58;6.18;;;1.60;;
51578;SDS011;47998;53.242;6.386;2023-03-08T16:05:24;7.45;;;1.35;;
51578;SDS011;47998;53.242;6.386;2023-03-08T16:08:00;4.38;;;0.90;;
51578;SDS011;47998;53.242;6.386;2023-03-08T16:10:27;3.42;;;1.20;;
51578;SDS011;47998;53.242;6.386;2023-03-08T16:12:57;5.25;;;1.10;;
51578;SDS011;47998;53.242;6.386;2023-03-08T16:15:24;3.78;;;1.38;;
51578;SDS011;47998;53.242;6.386;2023-03-08T16:17:50;3.28;;;1.40;;
51578;SDS011;47998;53.242;6.386;2023-03-08T16:20:16;4.28;;;1.55;;
51578;SDS011;47998;53.242;6.386;2023-03-08T16:22:43;3.28;;;1.10;;
51578;SDS011;47998;53.242;6.386;2023-03-08T16:25:09;4.50;;;1.38;;
51578;SDS011;47998;53.242;6.386;2023-03-08T16:27:35;4.95;;;1.65;;
51578;SDS011;47998;53.242;6.386;2023-03-08T16:30:02;4.13;;;1.25;;